Airport View

Enter AWOS ICAO identifier for current METAR.

ex. KFNL

KDYR 190556Z AUTO 35013G18KT 10SM -RA OVC010 09/08 A2966 RMK AO2 CIG 007V014 SLP061 6//// T00890078 10161 20089 401890089 51014 PNO $

19 Apr 2019 06:52

Frequency: 135.625

Phone: 731-287-0300

Other Area AWOS: KHKA - KM04 - KBYH - KUCY

TAF KMKL 190532Z 1906/2006 34016G26KT 5SM -SHRA BR BKN006 OVC010 FM190800 35015G22KT P6SM VCSH OVC009 FM191800 35014G20KT P6SM VCSH OVC015 FM200000 32011KT P6SM OVC015